Time;durP1;ratioP1;P1;durP2;ratioP2;P2;SDS_P1;SDS_P2;PMS_P1;PMS_P2;Temp;Humidity;BMP_temperature;BMP_pressure;BME280_temperature;BME280_humidity;BME280_pressure;Samples;Min_cycle;Max_cycle;Signal;HPM_P1;HPM_P2
2022/03/28 00:01:34;;;;;;;16.33;6.27;;;;;;;;;;4995566;28;20453;-75
2022/03/28 00:04:00;;;;;;;15.57;6.60;;;;;;;;;;4995290;28;20914;-75
2022/03/28 00:06:27;;;;;;;18.87;6.90;;;;;;;;;;4995836;28;20417;-75
2022/03/28 00:08:53;;;;;;;18.70;6.20;;;;;;;;;;4995164;28;20500;-75
2022/03/28 00:11:19;;;;;;;22.23;7.07;;;;;;;;;;4995141;28;20425;-75
2022/03/28 00:13:46;;;;;;;13.83;5.40;;;;;;;;;;4990587;28;20409;-75
2022/03/28 00:16:12;;;;;;;16.40;6.47;;;;;;;;;;4995462;28;20732;-75
2022/03/28 00:18:39;;;;;;;22.10;7.30;;;;;;;;;;4991926;28;20488;-75
2022/03/28 00:21:05;;;;;;;20.00;6.83;;;;;;;;;;4995303;28;20487;-72
2022/03/28 00:23:32;;;;;;;14.80;6.40;;;;;;;;;;4994520;28;20515;-73
2022/03/28 00:25:58;;;;;;;18.80;6.43;;;;;;;;;;4994656;28;20425;-72
2022/03/28 00:28:30;;;;;;;16.33;6.97;;;;;;;;;;4994292;28;20425;-72
2022/03/28 00:30:56;;;;;;;14.30;5.53;;;;;;;;;;4993425;28;20787;-73
2022/03/28 00:33:22;;;;;;;24.60;7.60;;;;;;;;;;4994158;28;20437;-73
2022/03/28 00:35:48;;;;;;;17.33;6.70;;;;;;;;;;4994984;28;20524;-72
2022/03/28 00:38:14;;;;;;;12.77;5.93;;;;;;;;;;4994007;28;20913;-73
2022/03/28 00:40:42;;;;;;;25.00;7.10;;;;;;;;;;4994516;28;20409;-72
2022/03/28 00:43:09;;;;;;;24.27;7.30;;;;;;;;;;4994176;28;20539;-73
2022/03/28 00:45:37;;;;;;;14.60;6.20;;;9.10;1.00;;;;;;4994482;28;20812;-73
2022/03/28 00:48:04;;;;;;;13.60;6.07;;;;;;;;;;4994121;28;20425;-72
2022/03/28 00:50:32;;;;;;;21.60;8.00;;;9.10;1.00;;;;;;4992943;28;20457;-73
2022/03/28 00:52:58;;;;;;;24.60;7.33;;;;;;;;;;4993695;28;20449;-73
2022/03/28 00:55:25;;;;;;;15.77;5.83;;;;;;;;;;4994249;28;20431;-73
2022/03/28 00:57:51;;;;;;;13.23;5.60;;;;;;;;;;4994009;28;20958;-73
2022/03/28 01:00:18;;;;;;;18.30;6.50;;;;;;;;;;4992709;28;20420;-73
2022/03/28 01:02:44;;;;;;;17.33;6.60;;;;;;;;;;4993828;28;20460;-72
2022/03/28 01:05:12;;;;;;;17.83;6.33;;;;;;;;;;4994191;28;20497;-74
2022/03/28 01:07:39;;;;;;;13.83;5.60;;;8.80;1.00;;;;;;4993437;28;20766;-74
2022/03/28 01:10:06;;;;;;;14.13;6.27;;;;;;;;;;4994439;28;20793;-74
2022/03/28 01:12:36;;;;;;;19.20;6.90;;;;;;;;;;4994414;28;20435;-74
2022/03/28 01:15:03;;;;;;;15.93;5.90;;;;;;;;;;4994364;28;20417;-75
2022/03/28 01:20:14;;;;;;;12.07;5.73;;;;;;;;;;4994759;28;20913;-74
2022/03/28 01:22:41;;;;;;;20.23;6.97;;;;;;;;;;4993995;28;20452;-74
2022/03/28 01:25:12;;;;;;;13.47;6.77;;;;;;;;;;4993065;28;20432;-75
2022/03/28 01:27:40;;;;;;;20.10;6.70;;;8.60;1.00;;;;;;4994008;28;20413;-75
2022/03/28 01:30:07;;;;;;;13.47;5.60;;;;;;;;;;4994253;28;20907;-75
2022/03/28 01:32:36;;;;;;;18.33;6.13;;;;;;;;;;4993723;28;20895;-75
2022/03/28 01:35:06;;;;;;;12.60;5.63;;;;;;;;;;4993906;28;20471;-75
2022/03/28 01:37:32;;;;;;;12.87;5.97;;;;;;;;;;4994411;28;20420;-74
2022/03/28 01:40:01;;;;;;;16.37;6.40;;;;;;;;;;4993969;28;20520;-75
2022/03/28 01:42:27;;;;;;;13.90;5.97;;;;;;;;;;4993472;28;20773;-75
2022/03/28 01:44:54;;;;;;;12.70;5.17;;;;;;;;;;4993816;28;20455;-75
2022/03/28 01:47:26;;;;;;;25.70;6.60;;;8.30;1.00;;;;;;4993608;28;20425;-74
2022/03/28 01:49:52;;;;;;;9.60;4.80;;;;;;;;;;4994033;28;20838;-74
2022/03/28 01:52:19;;;;;;;13.07;5.90;;;;;;;;;;4993602;28;20467;-73
2022/03/28 01:54:45;;;;;;;17.47;7.00;;;;;;;;;;4993492;28;20425;-72
2022/03/28 01:57:11;;;;;;;13.10;5.60;;;;;;;;;;4993659;28;20816;-73
2022/03/28 01:59:37;;;;;;;12.70;5.70;;;;;;;;;;4993779;28;20420;-73
2022/03/28 02:02:04;;;;;;;14.73;6.30;;;;;;;;;;4993380;28;20516;-73
2022/03/28 02:04:32;;;;;;;18.27;6.43;;;;;;;;;;4993012;28;20475;-73
2022/03/28 02:06:58;;;;;;;13.63;6.37;;;;;;;;;;4994027;28;20424;-75
2022/03/28 02:09:24;;;;;;;10.23;5.77;;;;;;;;;;4993470;28;20487;-74
2022/03/28 02:11:50;;;;;;;14.20;5.90;;;;;;;;;;4993732;28;20820;-74
2022/03/28 02:14:16;;;;;;;16.00;6.33;;;;;;;;;;4985142;28;20869;-75
2022/03/28 02:16:42;;;;;;;13.03;5.20;;;;;;;;;;4993748;28;20996;-75
2022/03/28 02:19:08;;;;;;;15.27;5.73;;;;;;;;;;4996548;28;20427;-75
2022/03/28 02:21:34;;;;;;;12.60;5.73;;;;;;;;;;4997729;28;20436;-72
2022/03/28 02:24:00;;;;;;;25.80;6.47;;;;;;;;;;4996836;28;20460;-73
2022/03/28 02:26:26;;;;;;;14.93;5.97;;;;;;;;;;4997095;28;20503;-73
2022/03/28 02:28:52;;;;;;;25.03;6.57;;;;;;;;;;4996776;28;20423;-73
2022/03/28 02:31:24;;;;;;;26.43;5.60;;;;;;;;;;4992984;28;20967;-72
2022/03/28 02:33:50;;;;;;;22.23;6.47;;;;;;;;;;4996861;28;20440;-72
2022/03/28 02:36:16;;;;;;;12.53;5.30;;;;;;;;;;4996736;28;20431;-73
2022/03/28 02:38:48;;;;;;;17.30;5.53;;;;;;;;;;4995533;28;20913;-73
2022/03/28 02:41:14;;;;;;;11.43;4.90;;;;;;;;;;4995866;28;20432;-72
2022/03/28 02:43:40;;;;;;;21.07;6.60;;;;;;;;;;4996560;28;20555;-73
2022/03/28 02:46:07;;;;;;;15.60;5.87;;;;;;;;;;4995352;28;20815;-73
2022/03/28 02:48:33;;;;;;;15.00;5.47;;;;;;;;;;4996381;28;20420;-72
2022/03/28 02:50:59;;;;;;;24.13;6.77;;;;;;;;;;4996685;28;20436;-73
2022/03/28 02:53:25;;;;;;;20.53;7.13;;;;;;;;;;4996254;28;20939;-73
2022/03/28 02:55:52;;;;;;;19.63;6.97;;;;;;;;;;4996010;28;20924;-73
2022/03/28 02:58:18;;;;;;;19.53;6.43;;;;;;;;;;4996779;28;20923;-73
2022/03/28 03:00:44;;;;;;;23.17;7.87;;;;;;;;;;4995927;28;20971;-73
2022/03/28 03:03:10;;;;;;;19.87;7.37;;;;;;;;;;4996412;28;20452;-72
2022/03/28 03:05:36;;;;;;;19.53;6.97;;;;;;;;;;4995631;28;20425;-73
2022/03/28 03:08:03;;;;;;;19.93;6.40;;;;;;;;;;4996356;28;20860;-72
2022/03/28 03:10:29;;;;;;;20.47;6.87;;;;;;;;;;4995837;28;20454;-73
2022/03/28 03:12:55;;;;;;;18.60;7.20;;;;;;;;;;5000771;28;20422;-72
2022/03/28 03:15:21;;;;;;;17.37;7.40;;;;;;;;;;4995689;28;20513;-72
2022/03/28 03:17:48;;;;;;;20.20;8.00;;;;;;;;;;4996181;28;20804;-73
2022/03/28 03:20:14;;;;;;;21.37;7.50;;;;;;;;;;4995811;28;20420;-73
2022/03/28 03:22:42;;;;;;;24.40;7.60;;;;;;;;;;4996539;28;20959;-72
2022/03/28 03:25:08;;;;;;;16.03;6.53;;;;;;;;;;4995108;28;20524;-72
2022/03/28 03:27:38;;;;;;;21.83;6.60;;;7.40;1.00;;;;;;4996003;28;20463;-73
2022/03/28 03:30:08;;;;;;;14.63;6.50;;;7.40;1.00;;;;;;4994713;28;20805;-73
2022/03/28 03:32:35;;;;;;;20.30;6.67;;;;;;;;;;4995943;28;20416;-73
2022/03/28 03:35:03;;;;;;;27.30;6.93;;;7.30;1.00;;;;;;4995250;28;20476;-73
2022/03/28 03:37:29;;;;;;;17.30;6.30;;;;;;;;;;4995964;28;20498;-74
2022/03/28 03:39:55;;;;;;;24.00;6.90;;;;;;;;;;4995856;28;20752;-74
2022/03/28 03:42:21;;;;;;;19.93;6.20;;;;;;;;;;4995729;28;20603;-75
2022/03/28 03:44:48;;;;;;;20.90;7.00;;;;;;;;;;4995415;28;20967;-75
2022/03/28 03:47:14;;;;;;;24.07;7.20;;;;;;;;;;4995486;28;20749;-75
2022/03/28 03:49:42;;;;;;;19.53;7.50;;;;;;;;;;4995464;28;20885;-75
2022/03/28 03:52:10;;;;;;;20.60;7.53;;;;;;;;;;4996145;28;20448;-73
2022/03/28 03:54:36;;;;;;;20.03;6.63;;;;;;;;;;4994935;28;20417;-73
2022/03/28 03:57:02;;;;;;;19.70;7.67;;;;;;;;;;4995358;28;20433;-72
2022/03/28 03:59:28;;;;;;;23.67;7.57;;;;;;;;;;4995247;28;20920;-73
2022/03/28 04:01:54;;;;;;;13.30;6.07;;;;;;;;;;4995286;28;20428;-73
2022/03/28 04:04:21;;;;;;;15.33;6.83;;;;;;;;;;4994893;28;20452;-72
2022/03/28 04:06:47;;;;;;;15.13;6.30;;;;;;;;;;4995687;28;20441;-73
2022/03/28 04:09:14;;;;;;;19.37;8.37;;;;;;;;;;4994450;28;20841;-73
2022/03/28 04:11:40;;;;;;;18.77;7.93;;;;;;;;;;4995038;28;20758;-73
2022/03/28 04:14:07;;;;;;;23.37;10.37;;;;;;;;;;4995075;28;20433;-73
2022/03/28 04:16:33;;;;;;;25.03;10.60;;;;;;;;;;4994956;28;20435;-73
2022/03/28 04:19:06;;;;;;;23.90;8.60;;;;;;;;;;4994426;28;20432;-73
2022/03/28 04:21:32;;;;;;;20.23;8.03;;;;;;;;;;4982276;28;20416;-73
2022/03/28 04:23:58;;;;;;;23.87;7.87;;;;;;;;;;4994743;28;20881;-73
2022/03/28 04:26:24;;;;;;;14.63;6.73;;;;;;;;;;4994930;28;20441;-73
2022/03/28 04:28:50;;;;;;;29.47;8.97;;;;;;;;;;4994333;28;20934;-73
2022/03/28 04:31:16;;;;;;;26.23;8.13;;;;;;;;;;4993307;28;20428;-73
2022/03/28 04:33:43;;;;;;;38.43;9.60;;;;;;;;;;4994446;28;20497;-72
2022/03/28 04:36:09;;;;;;;24.43;7.53;;;;;;;;;;4994827;28;20444;-73
2022/03/28 04:38:35;;;;;;;16.43;6.83;;;;;;;;;;4994546;28;20516;-73
2022/03/28 04:41:01;;;;;;;20.93;8.20;;;;;;;;;;4994469;28;20416;-72
2022/03/28 04:43:27;;;;;;;18.20;7.00;;;;;;;;;;4994216;28;20788;-73
2022/03/28 04:45:53;;;;;;;19.10;6.70;;;;;;;;;;4994131;28;20421;-73
2022/03/28 04:48:19;;;;;;;16.53;6.10;;;;;;;;;;4992843;28;20926;-73
2022/03/28 04:50:46;;;;;;;20.93;6.57;;;;;;;;;;4994609;28;20472;-72
2022/03/28 04:53:12;;;;;;;17.30;6.80;;;;;;;;;;4994473;28;20440;-73
2022/03/28 04:55:39;;;;;;;23.70;7.63;;;;;;;;;;4993854;28;20425;-72
2022/03/28 04:58:05;;;;;;;784.77;69.60;;;;;;;;;;4982258;28;20439;-73
2022/03/28 05:00:31;;;;;;;29.17;8.50;;;;;;;;;;4987452;28;20444;-72
2022/03/28 05:02:57;;;;;;;17.03;7.97;;;;;;;;;;4993514;28;20920;-72
2022/03/28 05:05:23;;;;;;;35.37;8.10;;;;;;;;;;4992821;28;20761;-72
2022/03/28 05:07:54;;;;;;;18.70;7.17;;;;;;;;;;4993186;28;20764;-75
2022/03/28 05:10:20;;;;;;;17.00;6.30;;;;;;;;;;4994322;28;20425;-75
2022/03/28 05:12:46;;;;;;;31.67;8.47;;;;;;;;;;4994455;28;20471;-75
2022/03/28 05:15:18;;;;;;;26.67;8.90;;;;;;;;;;4993664;28;20425;-75
2022/03/28 05:17:48;;;;;;;15.80;7.97;;;;;;;;;;4994252;28;20413;-75
2022/03/28 05:20:19;;;;;;;18.80;8.80;;;;;;;;;;4993795;28;20431;-76
2022/03/28 05:22:48;;;;;;;21.83;6.87;;;;;;;;;;4994093;28;20552;-75
2022/03/28 05:25:14;;;;;;;17.33;6.47;;;;;;;;;;4994451;28;20424;-74
2022/03/28 05:27:47;;;;;;;26.03;8.63;;;6.20;1.00;;;;;;4994150;28;20452;-74
2022/03/28 05:30:14;;;;;;;49.73;9.10;;;6.20;1.00;;;;;;4993357;28;20393;-75
2022/03/28 05:32:42;;;;;;;30.00;8.20;;;;;;;;;;4992790;28;20470;-75
2022/03/28 05:35:12;;;;;;;19.63;7.97;;;;;;;;;;4992960;28;20432;-75
2022/03/28 05:37:40;;;;;;;22.10;8.37;;;6.10;1.00;;;;;;4994396;28;20409;-73
2022/03/28 05:40:06;;;;;;;24.10;8.87;;;;;;;;;;4993104;28;20425;-73
2022/03/28 05:42:33;;;;;;;26.70;10.60;;;;;;;;;;4992776;28;20951;-73
2022/03/28 05:44:59;;;;;;;39.40;11.70;;;;;;;;;;4988652;28;20416;-72
2022/03/28 05:47:25;;;;;;;33.50;11.30;;;;;;;;;;4992753;28;20943;-73
2022/03/28 05:49:51;;;;;;;37.60;12.97;;;;;;;;;;4992949;28;20460;-72
2022/03/28 05:52:17;;;;;;;28.50;10.67;;;;;;;;;;4993736;28;20467;-73
2022/03/28 05:54:44;;;;;;;29.73;11.43;;;;;;;;;;4997368;28;20452;-73
2022/03/28 05:57:10;;;;;;;45.17;11.83;;;;;;;;;;4996682;28;20953;-72
2022/03/28 05:59:36;;;;;;;59.13;12.37;;;;;;;;;;4995434;28;20985;-73
2022/03/28 06:02:02;;;;;;;29.63;10.90;;;;;;;;;;4992780;28;20460;-72
2022/03/28 06:04:28;;;;;;;23.77;8.93;;;;;;;;;;4996922;28;21000;-72
2022/03/28 06:06:54;;;;;;;22.40;8.70;;;;;;;;;;4996478;28;20432;-72
2022/03/28 06:09:20;;;;;;;24.10;9.57;;;;;;;;;;4997306;28;20425;-72
2022/03/28 06:11:46;;;;;;;25.63;9.43;;;;;;;;;;4997025;28;20560;-73
2022/03/28 06:14:13;;;;;;;31.50;8.90;;;;;;;;;;4998535;28;20952;-73
2022/03/28 06:16:39;;;;;;;22.03;8.47;;;;;;;;;;4996090;28;20421;-73
2022/03/28 06:19:05;;;;;;;26.93;8.60;;;;;;;;;;4996932;28;20474;-72
2022/03/28 06:21:31;;;;;;;24.27;8.93;;;;;;;;;;5006252;28;20950;-73
2022/03/28 06:24:00;;;;;;;24.87;9.27;;;7.00;1.00;;;;;;4997496;28;20483;-72
2022/03/28 06:26:26;;;;;;;26.80;9.20;;;;;;;;;;4995482;28;20428;-73
2022/03/28 06:28:53;;;;;;;23.10;7.53;;;;;;;;;;4994819;28;20520;-73
2022/03/28 06:31:19;;;;;;;23.17;8.50;;;;;;;;;;4996810;28;20418;-72
2022/03/28 06:33:45;;;;;;;31.90;8.70;;;;;;;;;;4996612;28;20445;-72
2022/03/28 06:36:11;;;;;;;24.37;8.90;;;;;;;;;;4997032;28;20409;-73
2022/03/28 06:38:38;;;;;;;21.93;8.60;;;;;;;;;;4997085;28;20919;-73
2022/03/28 06:41:04;;;;;;;27.07;8.63;;;;;;;;;;4996724;28;20489;-73
2022/03/28 06:43:30;;;;;;;36.60;9.87;;;;;;;;;;4996220;28;20461;-73
2022/03/28 06:45:56;;;;;;;135.20;17.53;;;;;;;;;;4976425;28;20427;-73
2022/03/28 06:48:22;;;;;;;27.50;9.97;;;;;;;;;;4994250;28;20811;-73
2022/03/28 06:50:54;;;;;;;23.23;8.60;;;;;;;;;;4996137;28;20523;-73
2022/03/28 06:53:20;;;;;;;27.83;10.10;;;;;;;;;;4989467;28;20450;-73
2022/03/28 06:55:46;;;;;;;28.63;10.57;;;;;;;;;;4984176;28;20807;-72
2022/03/28 06:58:13;;;;;;;56.10;11.97;;;;;;;;;;4997484;28;20492;-73
2022/03/28 07:00:39;;;;;;;31.70;11.27;;;;;;;;;;4994840;28;21066;-73
2022/03/28 07:03:07;;;;;;;25.53;9.87;;;;;;;;;;4995139;28;20558;-72
2022/03/28 07:05:36;;;;;;;25.60;11.10;;;;;;;;;;4995209;28;20424;-73
2022/03/28 07:08:02;;;;;;;25.90;11.60;;;;;;;;;;4996027;28;20440;-74
2022/03/28 07:10:28;;;;;;;30.13;11.70;;;;;;;;;;4996214;28;20774;-73
2022/03/28 07:12:55;;;;;;;40.20;13.73;;;;;;;;;;4995342;28;20730;-73
2022/03/28 07:15:21;;;;;;;33.10;12.60;;;;;;;;;;4995974;28;20417;-73
2022/03/28 07:18:02;;;;;;;27.20;11.27;;;10.00;1.00;;;;;;4995092;28;20488;-73
2022/03/28 07:20:31;;;;;;;35.53;12.37;;;10.20;1.00;;;;;;4995627;28;20874;-73
2022/03/28 07:22:57;;;;;;;42.00;12.87;;;10.30;1.00;;;;;;4995552;28;20457;-73
2022/03/28 07:25:24;;;;;;;42.93;12.23;;;;;;;;;;4991252;28;20567;-73
2022/03/28 07:27:51;;;;;;;26.83;11.30;;;;;;;;;;4995508;28;20425;-73
2022/03/28 07:30:17;;;;;;;39.97;12.37;;;;;;;;;;4995687;28;20473;-73
2022/03/28 07:32:44;;;;;;;26.63;10.30;;;;;;;;;;4995551;28;20424;-73
2022/03/28 07:35:12;;;;;;;36.10;11.87;;;;;;;;;;4995408;28;20432;-73
2022/03/28 07:37:39;;;;;;;26.13;11.63;;;;;;;;;;4995228;28;20429;-73
2022/03/28 07:40:06;;;;;;;29.17;11.20;;;;;;;;;;4995736;28;20422;-73
2022/03/28 07:42:33;;;;;;;28.27;11.63;;;11.40;1.00;;;;;;4995016;28;20442;-73
2022/03/28 07:45:00;;;;;;;27.30;10.47;;;;;;;;;;4995171;28;20433;-73
2022/03/28 07:47:26;;;;;;;34.90;10.97;;;;;;;;;;4995093;28;20435;-73
2022/03/28 07:49:53;;;;;;;25.07;10.40;;;;;;;;;;4995381;28;20487;-73
2022/03/28 07:52:19;;;;;;;36.57;11.60;;;11.90;1.00;;;;;;4995171;28;20426;-73
2022/03/28 07:54:46;;;;;;;39.77;11.10;;;;;;;;;;4995292;28;20431;-73
2022/03/28 07:57:14;;;;;;;29.90;10.00;;;;;;;;;;4995367;28;20854;-74
2022/03/28 07:59:40;;;;;;;23.40;10.07;;;;;;;;;;4995180;28;20985;-73
2022/03/28 08:02:07;;;;;;;40.37;10.60;;;;;;;;;;4993034;28;20441;-73
2022/03/28 08:04:33;;;;;;;24.87;10.30;;;;;;;;;;4994724;28;20564;-73
2022/03/28 08:07:00;;;;;;;21.73;9.97;;;;;;;;;;4995233;28;20878;-73
2022/03/28 08:09:36;;;;;;;28.13;10.60;;;;;;;;;;4994699;28;20432;-76
2022/03/28 08:12:07;;;;;;;18.60;9.10;;;;;;;;;;4995050;28;20417;-79
2022/03/28 08:14:33;;;;;;;20.10;9.97;;;;;;;;;;4991573;28;20407;-76
2022/03/28 08:17:06;;;;;;;17.33;9.63;;;;;;;;;;4994210;28;20424;-76
2022/03/28 08:19:32;;;;;;;21.03;10.13;;;;;;;;;;4994903;28;20411;-75
2022/03/28 08:21:59;;;;;;;25.27;10.50;;;;;;;;;;4995219;28;20394;-76
2022/03/28 08:24:25;;;;;;;16.13;8.93;;;;;;;;;;4995113;28;20547;-78
2022/03/28 08:26:54;;;;;;;24.30;9.43;;;;;;;;;;4995013;28;20392;-75
2022/03/28 08:29:20;;;;;;;21.80;9.27;;;;;;;;;;4995130;28;20466;-76
2022/03/28 08:31:46;;;;;;;20.03;10.30;;;;;;;;;;4995041;28;20416;-76
2022/03/28 08:34:12;;;;;;;26.83;10.13;;;;;;;;;;4994777;28;20464;-76
2022/03/28 08:36:42;;;;;;;25.73;9.87;;;;;;;;;;4995034;28;20906;-76
2022/03/28 08:39:24;;;;;;;34.90;11.20;;;;;;;;;;4993026;28;20420;-76
2022/03/28 08:41:54;;;;;;;37.40;10.13;;;;;;;;;;4992017;28;20436;-78
2022/03/28 08:44:20;;;;;;;30.40;10.60;;;;;;;;;;4990825;28;21013;-76
2022/03/28 08:46:49;;;;;;;27.33;10.67;;;;;;;;;;4994269;28;20483;-76
2022/03/28 08:49:15;;;;;;;16.60;9.03;;;;;;;;;;4994290;28;20440;-76
2022/03/28 08:51:41;;;;;;;31.20;10.27;;;;;;;;;;4994858;28;20436;-77
2022/03/28 08:54:14;;;;;;;25.63;9.00;;;14.60;1.00;;;;;;4994486;28;20407;-77
2022/03/28 08:56:54;;;;;;;20.00;9.47;;;;;;;;;;4987874;28;20494;-76
2022/03/28 08:59:20;;;;;;;22.43;10.10;;;;;;;;;;4991334;28;20391;-76
2022/03/28 09:01:48;;;;;;;16.50;8.97;;;15.00;1.00;;;;;;4984831;28;20831;-76
2022/03/28 09:04:15;;;;;;;32.03;10.97;;;;;;;;;;4992630;28;20479;-76
2022/03/28 09:06:54;;;;;;;32.67;10.10;;;;;;;;;;4993821;28;20456;-76
2022/03/28 09:09:27;;;;;;;25.90;9.57;;;15.10;1.00;;;;;;4983076;28;20408;-76
2022/03/28 09:11:56;;;;;;;24.83;9.40;;;15.20;1.00;;;;;;4994580;28;20414;-73
2022/03/28 09:14:30;;;;;;;36.83;10.43;;;15.40;1.00;;;;;;4986603;28;20524;-72
2022/03/28 09:16:59;;;;;;;18.07;8.13;;;;;;;;;;4992922;28;20386;-72
2022/03/28 09:19:26;;;;;;;18.00;7.97;;;;;;;;;;4992969;28;20479;-73
2022/03/28 09:21:52;;;;;;;19.70;8.03;;;;;;;;;;4993967;28;20858;-72
2022/03/28 09:24:18;;;;;;;21.57;7.90;;;;;;;;;;4993039;28;20456;-72
2022/03/28 09:26:44;;;;;;;20.73;8.20;;;;;;;;;;4993488;28;20430;-72
2022/03/28 09:29:10;;;;;;;31.83;8.40;;;;;;;;;;4992865;28;20888;-72
2022/03/28 09:31:42;;;;;;;19.73;7.80;;;16.00;1.00;;;;;;4992002;28;20423;-72
2022/03/28 09:34:18;;;;;;;26.47;8.23;;;16.10;1.00;;;;;;4993032;28;20421;-72
2022/03/28 09:36:54;;;;;;;20.23;8.30;;;;;;;;;;4993702;28;20460;-72
2022/03/28 09:39:27;;;;;;;19.10;8.30;;;;;;;;;;4993870;28;20419;-72
2022/03/28 09:42:08;;;;;;;52.73;9.63;;;16.40;1.00;;;;;;4994022;28;20416;-76
2022/03/28 09:44:36;;;;;;;19.97;8.00;;;;;;;;;;4988918;28;20461;-76
2022/03/28 09:47:16;;;;;;;20.47;8.20;;;16.60;1.00;;;;;;4993830;28;20487;-76
2022/03/28 09:49:55;;;;;;;23.13;7.70;;;16.70;1.00;;;;;;4993973;28;20513;-76
2022/03/28 09:52:25;;;;;;;14.63;7.50;;;16.80;1.00;;;;;;4993633;28;20468;-76
2022/03/28 09:54:59;;;;;;;23.07;8.57;;;;;;;;;;4992207;28;20768;-76
2022/03/28 09:57:32;;;;;;;18.80;7.67;;;17.00;1.00;;;;;;4994059;28;20430;-76
2022/03/28 10:00:14;;;;;;;19.50;8.10;;;17.00;1.00;;;;;;4998854;28;20402;-76
2022/03/28 10:02:42;;;;;;;48.40;10.47;;;;;;;;;;4987349;28;21007;-76
2022/03/28 10:05:08;;;;;;;15.73;7.73;;;;;;;;;;4992369;28;20438;-76
2022/03/28 10:07:35;;;;;;;15.40;7.33;;;;;;;;;;5003788;28;20414;-76
2022/03/28 10:10:01;;;;;;;23.20;8.50;;;;;;;;;;4993875;28;20490;-76
2022/03/28 10:12:27;;;;;;;19.37;8.37;;;;;;;;;;4996973;28;20465;-72
2022/03/28 10:14:57;;;;;;;19.73;8.80;;;;;;;;;;4995124;28;20392;-72
2022/03/28 10:17:24;;;;;;;24.70;9.03;;;;;;;;;;4993185;28;20426;-72
2022/03/28 10:19:50;;;;;;;19.77;8.40;;;;;;;;;;4993650;28;20717;-72
2022/03/28 10:22:17;;;;;;;22.57;8.33;;;;;;;;;;4991521;28;20420;-72
2022/03/28 10:24:45;;;;;;;17.47;7.77;;;18.00;1.00;;;;;;4993444;28;20445;-72
2022/03/28 10:27:13;;;;;;;18.10;8.17;;;18.10;1.00;;;;;;4993588;28;20482;-81
2022/03/28 10:29:54;;;;;;;25.27;9.27;;;;;;;;;;4993779;28;20420;-80
2022/03/28 10:32:21;;;;;;;22.50;9.37;;;;;;;;;;4992951;28;20503;-77
2022/03/28 10:34:52;;;;;;;27.43;10.07;;;18.20;1.00;;;;;;4992183;28;20430;-77
2022/03/28 10:37:30;;;;;;;16.00;8.77;;;;;;;;;;4993255;28;20502;-77
2022/03/28 10:40:23;;;;;;;12.70;7.30;;;18.40;1.00;;;;;;4996108;28;20487;-76
2022/03/28 10:43:03;;;;;;;30.90;9.27;;;;;;;;;;4990529;28;20475;-72
2022/03/28 10:45:37;;;;;;;26.73;8.47;;;18.70;99.90;;;;;;4994449;28;20432;-72
2022/03/28 10:48:05;;;;;;;23.30;8.70;;;18.80;99.90;;;;;;4996521;28;20457;-72
2022/03/28 10:50:37;;;;;;;54.33;10.83;;;18.90;99.90;;;;;;4995845;28;20486;-72
2022/03/28 10:53:04;;;;;;;22.60;8.20;;;;;;;;;;4994645;28;20455;-72
2022/03/28 10:55:48;;;;;;;23.33;8.40;;;;;;;;;;4994849;28;20442;-72
2022/03/28 10:58:21;;;;;;;19.77;8.13;;;19.10;99.90;;;;;;4993346;28;20416;-72
2022/03/28 11:01:11;;;;;;;32.03;8.47;;;19.30;99.90;;;;;;4995934;28;20440;-72
2022/03/28 11:03:58;;;;;;;54.17;9.60;;;;;;;;;;4973662;28;20496;-72
2022/03/28 11:06:53;;;;;;;17.80;6.53;;;19.40;99.90;;;;;;4972813;28;20474;-72
2022/03/28 11:09:37;;;;;;;28.00;8.67;;;;;;;;;;4974047;28;20433;-72
2022/03/28 11:12:28;;;;;;;13.73;6.77;;;19.40;99.90;;;;;;4974746;28;20418;-76
2022/03/28 11:14:57;;;;;;;22.70;6.10;;;;;;;;;;4966127;28;20512;-76
2022/03/28 11:17:26;;;;;;;11.10;5.23;;;;;;;;;;4974712;28;20430;-76
2022/03/28 11:20:00;;;;;;;17.77;6.10;;;19.70;99.90;;;;;;4958625;28;20419;-77
2022/03/28 11:22:44;;;;;;;14.10;7.10;;;19.90;99.90;;;;;;4968564;28;20455;-77
2022/03/28 11:25:44;;;;;;;22.13;7.07;;;19.90;99.90;;;;;;4970128;28;20878;-77
2022/03/28 11:28:22;;;;;;;21.93;6.63;;;;;;;;;;4974778;28;20429;-72
2022/03/28 11:30:48;;;;;;;30.93;7.37;;;;;;;;;;4973578;28;20430;-73
2022/03/28 11:33:21;;;;;;;17.80;7.03;;;;;;;;;;4974807;28;20415;-78
2022/03/28 11:36:06;;;;;;;22.00;6.47;;;20.20;99.90;;;;;;4974537;28;20429;-79
2022/03/28 11:38:55;;;;;;;12.93;5.80;;;20.20;99.90;;;;;;4974349;28;20536;-78
2022/03/28 11:41:30;;;;;;;12.13;5.50;;;;;;;;;;4991794;28;20927;-79
2022/03/28 11:44:11;;;;;;;9.83;5.70;;;20.30;99.90;;;;;;4995703;28;20457;-78
2022/03/28 11:46:43;;;;;;;14.53;7.13;;;;;;;;;;4995705;28;20547;-78
2022/03/28 11:49:18;;;;;;;23.03;6.70;;;;;;;;;;4989511;28;20419;-78
2022/03/28 11:51:48;;;;;;;16.23;6.60;;;;;;;;;;4995206;28;20464;-79
2022/03/28 11:54:42;;;;;;;18.80;7.03;;;20.50;99.90;;;;;;4995408;28;20438;-79
2022/03/28 12:00:30;;;;;;;16.47;7.40;;;20.60;99.90;;;;;;4995555;28;20448;-81
2022/03/28 12:03:00;;;;;;;14.23;7.00;;;;;;;;;;4989768;28;20469;-81
2022/03/28 12:05:39;;;;;;;13.50;6.70;;;20.60;99.90;;;;;;4991386;28;20468;-80
2022/03/28 12:08:13;;;;;;;18.70;6.40;;;20.60;99.90;;;;;;4994610;28;20766;-76
2022/03/28 12:10:42;;;;;;;20.63;6.70;;;20.70;99.90;;;;;;4988135;28;20434;-79
2022/03/28 12:13:10;;;;;;;30.13;7.70;;;20.80;99.90;;;;;;4997294;28;20426;-73
2022/03/28 12:15:38;;;;;;;31.97;7.73;;;;;;;;;;4988292;28;20812;-74
2022/03/28 12:18:07;;;;;;;12.80;6.50;;;20.80;99.90;;;;;;4992029;28;20431;-81
2022/03/28 12:20:34;;;;;;;28.47;7.73;;;;;;;;;;4994927;28;20462;-73
2022/03/28 12:23:05;;;;;;;24.20;7.13;;;;;;;;;;4994631;28;20458;-72
2022/03/28 12:25:39;;;;;;;35.73;7.77;;;;;;;;;;4989254;28;20474;-72
2022/03/28 12:28:08;;;;;;;15.17;6.30;;;21.00;99.90;;;;;;4993698;28;20436;-76
2022/03/28 12:30:37;;;;;;;22.80;7.40;;;20.90;99.90;;;;;;4994595;28;20402;-76
2022/03/28 12:33:12;;;;;;;13.93;6.57;;;21.00;99.90;;;;;;4994856;28;20425;-76
2022/03/28 12:35:44;;;;;;;23.47;6.80;;;;;;;;;;4994819;28;20912;-76
2022/03/28 12:38:13;;;;;;;15.90;6.43;;;;;;;;;;4994508;28;20433;-76
2022/03/28 12:40:44;;;;;;;19.47;6.50;;;;;;;;;;4992950;28;20447;-76
2022/03/28 12:43:11;;;;;;;14.03;6.30;;;21.40;99.90;;;;;;4993946;28;20994;-76
2022/03/28 12:45:43;;;;;;;58.30;9.03;;;;;;;;;;4994334;28;20439;-76
2022/03/28 12:48:11;;;;;;;29.77;7.70;;;21.50;99.90;;;;;;4993808;28;20920;-76
2022/03/28 12:51:04;;;;;;;24.73;7.23;;;;;;;;;;4982791;28;20422;-77
2022/03/28 12:53:31;;;;;;;15.20;5.93;;;;;;;;;;4989089;28;20469;-77
2022/03/28 12:56:17;;;;;;;11.80;5.83;;;21.60;99.90;;;;;;4994326;28;20456;-77
2022/03/28 12:59:04;;;;;;;18.53;5.90;;;21.60;99.90;;;;;;4987806;28;20428;-77
2022/03/28 13:01:32;;;;;;;20.50;7.00;;;21.60;99.90;;;;;;4993936;28;20896;-76
2022/03/28 13:04:17;;;;;;;22.30;6.60;;;;;;;;;;4992954;28;20460;-76
2022/03/28 13:06:45;;;;;;;76.17;10.13;;;;;;;;;;4993219;28;20439;-76
2022/03/28 13:09:12;;;;;;;24.17;6.97;;;;;;;;;;4991302;28;20444;-76
2022/03/28 13:11:39;;;;;;;25.87;7.57;;;;;;;;;;4994297;28;20425;-76
2022/03/28 13:14:05;;;;;;;16.13;5.30;;;21.80;99.90;;;;;;5002706;28;20472;-73
2022/03/28 13:16:31;;;;;;;42.27;8.07;;;;;;;;;;4993319;28;20429;-74
2022/03/28 13:18:58;;;;;;;441.97;34.80;;;;;;;;;;4986763;28;20445;-73
2022/03/28 13:21:31;;;;;;;22.07;6.70;;;21.90;99.90;;;;;;4989953;28;20413;-73
2022/03/28 13:24:14;;;;;;;29.00;6.60;;;21.90;99.90;;;;;;4991274;28;20510;-74
2022/03/28 13:26:42;;;;;;;40.83;7.97;;;;;;;;;;4988947;28;20422;-73
2022/03/28 13:29:27;;;;;;;55.27;9.93;;;22.10;99.90;;;;;;4991805;28;20428;-76
2022/03/28 13:31:54;;;;;;;23.40;6.17;;;22.00;99.90;;;;;;4988676;28;20430;-75
2022/03/28 13:34:24;;;;;;;15.90;6.07;;;;;;;;;;4994114;28;20427;-76
2022/03/28 13:36:51;;;;;;;29.03;7.40;;;;;;;;;;4993736;28;20977;-76
2022/03/28 13:39:17;;;;;;;15.50;6.07;;;;;;;;;;5003644;28;20861;-77
2022/03/28 13:41:44;;;;;;;21.83;7.00;;;;;;;;;;4992556;28;20892;-76
2022/03/28 13:44:11;;;;;;;20.63;6.73;;;;;;;;;;4993650;28;20790;-71
2022/03/28 13:46:37;;;;;;;31.30;7.30;;;;;;;;;;4992945;28;20432;-72
2022/03/28 13:49:04;;;;;;;16.37;5.60;;;;;;;;;;4991944;28;20465;-72
2022/03/28 13:51:31;;;;;;;18.40;6.23;;;;;;;;;;4994016;28;20435;-72
2022/03/28 13:53:58;;;;;;;22.13;6.07;;;;;;;;;;4993300;28;20453;-74
2022/03/28 13:56:25;;;;;;;23.73;7.70;;;;;;;;;;4993714;28;20412;-74
2022/03/28 13:59:01;;;;;;;16.07;6.67;;;;;;;;;;4993797;28;20504;-75
2022/03/28 14:01:28;;;;;;;27.60;7.70;;;;;;;;;;4991536;28;20413;-76
2022/03/28 14:03:55;;;;;;;17.67;6.87;;;22.40;99.90;;;;;;4988820;28;20464;-76
2022/03/28 14:06:25;;;;;;;16.73;6.13;;;22.50;99.90;;;;;;4986184;28;20407;-76
2022/03/28 14:08:52;;;;;;;16.70;6.57;;;22.50;99.90;;;;;;4991492;28;20433;-75
2022/03/28 14:11:18;;;;;;;25.17;7.43;;;;;;;;;;4993718;28;20426;-75
2022/03/28 14:13:54;;;;;;;51.73;17.10;;;;;;;;;;4993237;28;20461;-76
2022/03/28 14:16:21;;;;;;;35.80;12.00;;;;;;;;;;4991386;28;20461;-76
2022/03/28 14:18:47;;;;;;;15.20;6.07;;;;;;;;;;4997447;28;20415;-76
2022/03/28 14:21:15;;;;;;;22.13;7.10;;;;;;;;;;4997388;28;20432;-76